sensor_id;sensor_type;location;lat;lon;timestamp;temperature;humidity
52859;DHT22;38721;53.098;6.596;2023-02-04T00:02:22;7.00;99.90
52859;DHT22;38721;53.098;6.596;2023-02-04T00:04:48;7.00;99.90
52859;DHT22;38721;53.098;6.596;2023-02-04T00:07:14;6.90;99.90
52859;DHT22;38721;53.098;6.596;2023-02-04T00:09:43;6.90;99.90
52859;DHT22;38721;53.098;6.596;2023-02-04T00:12:14;6.90;99.90
52859;DHT22;38721;53.098;6.596;2023-02-04T00:14:40;7.00;99.90
52859;DHT22;38721;53.098;6.596;2023-02-04T00:17:09;7.00;99.90
52859;DHT22;38721;53.098;6.596;2023-02-04T00:19:38;7.00;99.90
52859;DHT22;38721;53.098;6.596;2023-02-04T00:22:04;7.10;99.90
52859;DHT22;38721;53.098;6.596;2023-02-04T00:24:33;7.10;99.90
52859;DHT22;38721;53.098;6.596;2023-02-04T00:26:58;7.00;99.90
52859;DHT22;38721;53.098;6.596;2023-02-04T00:29:24;7.10;99.90
52859;DHT22;38721;53.098;6.596;2023-02-04T00:31:50;7.10;99.90
52859;DHT22;38721;53.098;6.596;2023-02-04T00:34:16;7.00;99.90
52859;DHT22;38721;53.098;6.596;2023-02-04T00:36:45;7.20;99.90
52859;DHT22;38721;53.098;6.596;2023-02-04T00:39:11;7.10;99.90
52859;DHT22;38721;53.098;6.596;2023-02-04T00:41:37;7.20;99.90
52859;DHT22;38721;53.098;6.596;2023-02-04T00:44:04;7.10;99.90
52859;DHT22;38721;53.098;6.596;2023-02-04T00:46:29;7.00;99.90
52859;DHT22;38721;53.098;6.596;2023-02-04T00:48:55;7.10;99.90
52859;DHT22;38721;53.098;6.596;2023-02-04T00:51:24;7.10;99.90
52859;DHT22;38721;53.098;6.596;2023-02-04T00:53:49;7.00;99.90
52859;DHT22;38721;53.098;6.596;2023-02-04T00:56:15;7.20;99.90
52859;DHT22;38721;53.098;6.596;2023-02-04T00:58:41;7.10;99.90
52859;DHT22;38721;53.098;6.596;2023-02-04T01:01:06;7.10;99.90
52859;DHT22;38721;53.098;6.596;2023-02-04T01:03:32;7.10;99.90
52859;DHT22;38721;53.098;6.596;2023-02-04T01:05:58;7.10;99.90
52859;DHT22;38721;53.098;6.596;2023-02-04T01:08:23;7.10;99.90
52859;DHT22;38721;53.098;6.596;2023-02-04T01:10:52;7.10;99.90
52859;DHT22;38721;53.098;6.596;2023-02-04T01:13:17;7.10;99.90
52859;DHT22;38721;53.098;6.596;2023-02-04T01:15:43;7.10;99.90
52859;DHT22;38721;53.098;6.596;2023-02-04T01:18:09;7.20;99.90
52859;DHT22;38721;53.098;6.596;2023-02-04T01:20:34;7.20;99.90
52859;DHT22;38721;53.098;6.596;2023-02-04T01:23:00;7.20;99.90
52859;DHT22;38721;53.098;6.596;2023-02-04T01:25:26;7.20;99.90
52859;DHT22;38721;53.098;6.596;2023-02-04T01:27:51;7.20;99.90
52859;DHT22;38721;53.098;6.596;2023-02-04T01:30:17;7.20;99.90
52859;DHT22;38721;53.098;6.596;2023-02-04T01:32:43;7.20;99.90
52859;DHT22;38721;53.098;6.596;2023-02-04T01:35:09;7.20;99.90
52859;DHT22;38721;53.098;6.596;2023-02-04T01:37:35;7.20;99.90
52859;DHT22;38721;53.098;6.596;2023-02-04T01:40:01;7.20;99.90
52859;DHT22;38721;53.098;6.596;2023-02-04T01:42:26;7.30;99.90
52859;DHT22;38721;53.098;6.596;2023-02-04T01:44:52;7.30;99.90
52859;DHT22;38721;53.098;6.596;2023-02-04T01:47:19;7.30;99.90
52859;DHT22;38721;53.098;6.596;2023-02-04T01:49:46;7.20;99.90
52859;DHT22;38721;53.098;6.596;2023-02-04T01:52:16;7.30;99.90
52859;DHT22;38721;53.098;6.596;2023-02-04T01:54:42;7.30;99.90
52859;DHT22;38721;53.098;6.596;2023-02-04T01:57:14;7.30;99.90
52859;DHT22;38721;53.098;6.596;2023-02-04T01:59:44;7.20;99.90
52859;DHT22;38721;53.098;6.596;2023-02-04T02:02:40;7.30;99.90
52859;DHT22;38721;53.098;6.596;2023-02-04T02:05:14;7.30;99.90
52859;DHT22;38721;53.098;6.596;2023-02-04T02:07:40;7.20;99.90
52859;DHT22;38721;53.098;6.596;2023-02-04T02:10:09;7.20;99.90
52859;DHT22;38721;53.098;6.596;2023-02-04T02:12:35;7.30;99.90
52859;DHT22;38721;53.098;6.596;2023-02-04T02:15:01;7.20;99.90
52859;DHT22;38721;53.098;6.596;2023-02-04T02:17:27;7.20;99.90
52859;DHT22;38721;53.098;6.596;2023-02-04T02:19:56;7.20;99.90
52859;DHT22;38721;53.098;6.596;2023-02-04T02:22:32;7.20;99.90
52859;DHT22;38721;53.098;6.596;2023-02-04T02:25:00;7.30;99.90
52859;DHT22;38721;53.098;6.596;2023-02-04T02:27:25;7.20;99.90
52859;DHT22;38721;53.098;6.596;2023-02-04T02:29:51;7.30;99.90
52859;DHT22;38721;53.098;6.596;2023-02-04T02:32:17;7.20;99.90
52859;DHT22;38721;53.098;6.596;2023-02-04T02:34:44;7.10;99.90
52859;DHT22;38721;53.098;6.596;2023-02-04T02:37:10;7.20;99.90
52859;DHT22;38721;53.098;6.596;2023-02-04T02:39:39;7.10;99.90
52859;DHT22;38721;53.098;6.596;2023-02-04T02:42:05;7.20;99.90
52859;DHT22;38721;53.098;6.596;2023-02-04T02:44:32;7.10;99.90
52859;DHT22;38721;53.098;6.596;2023-02-04T02:47:01;7.20;99.90
52859;DHT22;38721;53.098;6.596;2023-02-04T02:49:29;7.00;99.90
52859;DHT22;38721;53.098;6.596;2023-02-04T02:51:56;7.10;99.90
52859;DHT22;38721;53.098;6.596;2023-02-04T02:54:23;7.10;99.90
52859;DHT22;38721;53.098;6.596;2023-02-04T02:56:51;7.10;99.90
52859;DHT22;38721;53.098;6.596;2023-02-04T02:59:17;7.00;99.90
52859;DHT22;38721;53.098;6.596;2023-02-04T03:01:44;7.00;99.90
52859;DHT22;38721;53.098;6.596;2023-02-04T03:04:11;7.10;99.90
52859;DHT22;38721;53.098;6.596;2023-02-04T03:06:37;7.10;99.90
52859;DHT22;38721;53.098;6.596;2023-02-04T03:09:03;7.00;99.90
52859;DHT22;38721;53.098;6.596;2023-02-04T03:11:29;7.00;99.90
52859;DHT22;38721;53.098;6.596;2023-02-04T03:13:58;6.90;99.90
52859;DHT22;38721;53.098;6.596;2023-02-04T03:16:29;7.10;99.90
52859;DHT22;38721;53.098;6.596;2023-02-04T03:18:58;7.10;99.90
52859;DHT22;38721;53.098;6.596;2023-02-04T03:21:25;7.10;99.90
52859;DHT22;38721;53.098;6.596;2023-02-04T03:23:51;7.10;99.90
52859;DHT22;38721;53.098;6.596;2023-02-04T03:26:24;7.00;99.90
52859;DHT22;38721;53.098;6.596;2023-02-04T03:28:52;7.00;99.90
52859;DHT22;38721;53.098;6.596;2023-02-04T03:31:18;7.00;99.90
52859;DHT22;38721;53.098;6.596;2023-02-04T03:33:44;6.90;99.90
52859;DHT22;38721;53.098;6.596;2023-02-04T03:36:10;6.80;99.90
52859;DHT22;38721;53.098;6.596;2023-02-04T03:38:36;6.80;99.90
52859;DHT22;38721;53.098;6.596;2023-02-04T03:41:01;6.80;99.90
52859;DHT22;38721;53.098;6.596;2023-02-04T03:43:27;6.80;99.90
52859;DHT22;38721;53.098;6.596;2023-02-04T03:45:53;6.90;99.90
52859;DHT22;38721;53.098;6.596;2023-02-04T03:48:19;6.80;99.90
52859;DHT22;38721;53.098;6.596;2023-02-04T03:50:44;6.80;99.90
52859;DHT22;38721;53.098;6.596;2023-02-04T03:53:10;6.80;99.90
52859;DHT22;38721;53.098;6.596;2023-02-04T03:55:36;6.80;99.90
52859;DHT22;38721;53.098;6.596;2023-02-04T03:58:02;6.80;99.90
52859;DHT22;38721;53.098;6.596;2023-02-04T04:00:28;6.70;99.90
52859;DHT22;38721;53.098;6.596;2023-02-04T04:02:54;6.70;99.90
52859;DHT22;38721;53.098;6.596;2023-02-04T04:05:21;6.70;99.90
52859;DHT22;38721;53.098;6.596;2023-02-04T04:07:47;6.70;99.90
52859;DHT22;38721;53.098;6.596;2023-02-04T04:10:13;6.60;99.90
52859;DHT22;38721;53.098;6.596;2023-02-04T04:12:39;6.60;99.90
52859;DHT22;38721;53.098;6.596;2023-02-04T04:15:05;6.60;99.90
52859;DHT22;38721;53.098;6.596;2023-02-04T04:17:32;6.50;99.90
52859;DHT22;38721;53.098;6.596;2023-02-04T04:19:57;6.50;99.90
52859;DHT22;38721;53.098;6.596;2023-02-04T04:22:23;6.50;99.90
52859;DHT22;38721;53.098;6.596;2023-02-04T04:24:49;6.50;99.90
52859;DHT22;38721;53.098;6.596;2023-02-04T04:27:14;6.50;99.90
52859;DHT22;38721;53.098;6.596;2023-02-04T04:29:40;6.50;99.90
52859;DHT22;38721;53.098;6.596;2023-02-04T04:32:06;6.50;99.90
52859;DHT22;38721;53.098;6.596;2023-02-04T04:34:35;6.40;99.90
52859;DHT22;38721;53.098;6.596;2023-02-04T04:37:00;6.50;99.90
52859;DHT22;38721;53.098;6.596;2023-02-04T04:39:26;6.40;99.90
52859;DHT22;38721;53.098;6.596;2023-02-04T04:41:52;6.40;99.90
52859;DHT22;38721;53.098;6.596;2023-02-04T04:44:17;6.30;99.90
52859;DHT22;38721;53.098;6.596;2023-02-04T04:46:43;6.30;99.90
52859;DHT22;38721;53.098;6.596;2023-02-04T04:49:09;6.20;99.90
52859;DHT22;38721;53.098;6.596;2023-02-04T04:51:34;6.20;99.90
52859;DHT22;38721;53.098;6.596;2023-02-04T04:54:00;6.20;99.90
52859;DHT22;38721;53.098;6.596;2023-02-04T04:56:29;6.20;99.90
52859;DHT22;38721;53.098;6.596;2023-02-04T04:58:54;6.20;99.90
52859;DHT22;38721;53.098;6.596;2023-02-04T05:01:20;6.20;99.90
52859;DHT22;38721;53.098;6.596;2023-02-04T05:03:47;6.10;99.90
52859;DHT22;38721;53.098;6.596;2023-02-04T05:06:12;6.10;99.90
52859;DHT22;38721;53.098;6.596;2023-02-04T05:08:38;6.00;99.90
52859;DHT22;38721;53.098;6.596;2023-02-04T05:11:04;5.90;99.90
52859;DHT22;38721;53.098;6.596;2023-02-04T05:13:33;6.00;99.90
52859;DHT22;38721;53.098;6.596;2023-02-04T05:15:58;5.90;99.90
52859;DHT22;38721;53.098;6.596;2023-02-04T05:18:24;6.00;99.90
52859;DHT22;38721;53.098;6.596;2023-02-04T05:20:50;5.90;99.90
52859;DHT22;38721;53.098;6.596;2023-02-04T05:23:15;5.90;99.90
52859;DHT22;38721;53.098;6.596;2023-02-04T05:25:41;6.00;99.90
52859;DHT22;38721;53.098;6.596;2023-02-04T05:28:07;6.00;99.90
52859;DHT22;38721;53.098;6.596;2023-02-04T05:30:33;5.90;99.90
52859;DHT22;38721;53.098;6.596;2023-02-04T05:32:58;5.90;99.90
52859;DHT22;38721;53.098;6.596;2023-02-04T05:35:24;5.80;99.90
52859;DHT22;38721;53.098;6.596;2023-02-04T05:37:50;5.90;99.90
52859;DHT22;38721;53.098;6.596;2023-02-04T05:40:16;5.80;99.90
52859;DHT22;38721;53.098;6.596;2023-02-04T05:42:42;5.80;99.90
52859;DHT22;38721;53.098;6.596;2023-02-04T05:45:14;5.90;99.90
52859;DHT22;38721;53.098;6.596;2023-02-04T05:47:40;5.90;99.90
52859;DHT22;38721;53.098;6.596;2023-02-04T05:50:06;5.80;99.90
52859;DHT22;38721;53.098;6.596;2023-02-04T05:52:32;5.80;99.90
52859;DHT22;38721;53.098;6.596;2023-02-04T05:54:58;5.80;99.90
52859;DHT22;38721;53.098;6.596;2023-02-04T05:57:24;5.80;99.90
52859;DHT22;38721;53.098;6.596;2023-02-04T05:59:49;5.80;99.90
52859;DHT22;38721;53.098;6.596;2023-02-04T06:02:15;5.80;99.90
52859;DHT22;38721;53.098;6.596;2023-02-04T06:04:44;5.70;99.90
52859;DHT22;38721;53.098;6.596;2023-02-04T06:07:09;5.70;99.90
52859;DHT22;38721;53.098;6.596;2023-02-04T06:09:35;5.70;99.90
52859;DHT22;38721;53.098;6.596;2023-02-04T06:12:01;5.70;99.90
52859;DHT22;38721;53.098;6.596;2023-02-04T06:14:27;5.70;99.90
52859;DHT22;38721;53.098;6.596;2023-02-04T06:16:52;5.60;99.90
52859;DHT22;38721;53.098;6.596;2023-02-04T06:19:18;5.70;99.90
52859;DHT22;38721;53.098;6.596;2023-02-04T06:21:44;5.70;99.90
52859;DHT22;38721;53.098;6.596;2023-02-04T06:24:12;5.70;99.90
52859;DHT22;38721;53.098;6.596;2023-02-04T06:26:38;5.70;99.90
52859;DHT22;38721;53.098;6.596;2023-02-04T06:29:04;5.70;99.90
52859;DHT22;38721;53.098;6.596;2023-02-04T06:31:30;5.70;99.90
52859;DHT22;38721;53.098;6.596;2023-02-04T06:33:55;5.60;99.90
52859;DHT22;38721;53.098;6.596;2023-02-04T06:36:21;5.60;99.90
52859;DHT22;38721;53.098;6.596;2023-02-04T06:38:47;5.60;99.90
52859;DHT22;38721;53.098;6.596;2023-02-04T06:41:12;5.70;99.90
52859;DHT22;38721;53.098;6.596;2023-02-04T06:43:41;5.50;99.90
52859;DHT22;38721;53.098;6.596;2023-02-04T06:46:07;5.60;99.90
52859;DHT22;38721;53.098;6.596;2023-02-04T06:48:32;5.50;99.90
52859;DHT22;38721;53.098;6.596;2023-02-04T06:50:58;5.50;99.90
52859;DHT22;38721;53.098;6.596;2023-02-04T06:53:24;5.50;99.90
52859;DHT22;38721;53.098;6.596;2023-02-04T06:55:50;5.50;99.90
52859;DHT22;38721;53.098;6.596;2023-02-04T06:58:17;5.40;99.90
52859;DHT22;38721;53.098;6.596;2023-02-04T07:00:46;5.50;99.90
52859;DHT22;38721;53.098;6.596;2023-02-04T07:03:11;5.50;99.90
52859;DHT22;38721;53.098;6.596;2023-02-04T07:05:37;5.50;99.90
52859;DHT22;38721;53.098;6.596;2023-02-04T07:08:03;5.50;99.90
52859;DHT22;38721;53.098;6.596;2023-02-04T07:10:28;5.40;99.90
52859;DHT22;38721;53.098;6.596;2023-02-04T07:12:54;5.50;99.90
52859;DHT22;38721;53.098;6.596;2023-02-04T07:15:20;5.40;99.90
52859;DHT22;38721;53.098;6.596;2023-02-04T07:17:46;5.50;99.90
52859;DHT22;38721;53.098;6.596;2023-02-04T07:20:12;5.40;99.90
52859;DHT22;38721;53.098;6.596;2023-02-04T07:22:37;5.40;99.90
52859;DHT22;38721;53.098;6.596;2023-02-04T07:25:03;5.50;99.90
52859;DHT22;38721;53.098;6.596;2023-02-04T07:27:29;5.50;99.90
52859;DHT22;38721;53.098;6.596;2023-02-04T07:29:55;5.50;99.90
52859;DHT22;38721;53.098;6.596;2023-02-04T07:32:20;5.50;99.90
52859;DHT22;38721;53.098;6.596;2023-02-04T07:34:46;5.50;99.90
52859;DHT22;38721;53.098;6.596;2023-02-04T07:37:13;5.50;99.90
52859;DHT22;38721;53.098;6.596;2023-02-04T07:39:39;5.50;99.90
52859;DHT22;38721;53.098;6.596;2023-02-04T07:42:05;5.50;99.90
52859;DHT22;38721;53.098;6.596;2023-02-04T07:44:31;5.60;99.90
52859;DHT22;38721;53.098;6.596;2023-02-04T07:46:57;5.60;99.90
52859;DHT22;38721;53.098;6.596;2023-02-04T07:49:22;5.40;99.90
52859;DHT22;38721;53.098;6.596;2023-02-04T07:51:48;5.50;99.90
52859;DHT22;38721;53.098;6.596;2023-02-04T07:54:14;5.50;99.90
52859;DHT22;38721;53.098;6.596;2023-02-04T07:56:42;5.60;99.90
52859;DHT22;38721;53.098;6.596;2023-02-04T07:59:08;5.50;99.90
52859;DHT22;38721;53.098;6.596;2023-02-04T08:01:34;5.60;99.90
52859;DHT22;38721;53.098;6.596;2023-02-04T08:04:00;5.50;99.90
52859;DHT22;38721;53.098;6.596;2023-02-04T08:06:26;5.60;99.90
52859;DHT22;38721;53.098;6.596;2023-02-04T08:08:52;5.60;99.90
52859;DHT22;38721;53.098;6.596;2023-02-04T08:11:17;5.70;99.90
52859;DHT22;38721;53.098;6.596;2023-02-04T08:13:43;5.80;99.90
52859;DHT22;38721;53.098;6.596;2023-02-04T08:16:09;5.80;99.90
52859;DHT22;38721;53.098;6.596;2023-02-04T08:18:35;5.90;99.90
52859;DHT22;38721;53.098;6.596;2023-02-04T08:21:00;5.90;99.90
52859;DHT22;38721;53.098;6.596;2023-02-04T08:23:27;5.90;99.90
52859;DHT22;38721;53.098;6.596;2023-02-04T08:25:53;6.00;99.90
52859;DHT22;38721;53.098;6.596;2023-02-04T08:28:18;6.00;99.90
52859;DHT22;38721;53.098;6.596;2023-02-04T08:30:44;6.00;99.90
52859;DHT22;38721;53.098;6.596;2023-02-04T08:33:10;6.00;99.90
52859;DHT22;38721;53.098;6.596;2023-02-04T08:35:36;6.10;99.90
52859;DHT22;38721;53.098;6.596;2023-02-04T08:38:02;6.10;99.90
52859;DHT22;38721;53.098;6.596;2023-02-04T08:40:28;6.10;99.90
52859;DHT22;38721;53.098;6.596;2023-02-04T08:42:53;6.10;99.90
52859;DHT22;38721;53.098;6.596;2023-02-04T08:45:19;6.10;99.90
52859;DHT22;38721;53.098;6.596;2023-02-04T08:47:48;6.10;99.90
52859;DHT22;38721;53.098;6.596;2023-02-04T08:50:14;6.20;99.90
52859;DHT22;38721;53.098;6.596;2023-02-04T08:52:40;6.20;99.90
52859;DHT22;38721;53.098;6.596;2023-02-04T08:55:09;6.30;99.90
52859;DHT22;38721;53.098;6.596;2023-02-04T08:57:37;6.40;99.90
52859;DHT22;38721;53.098;6.596;2023-02-04T09:00:03;6.50;99.90
52859;DHT22;38721;53.098;6.596;2023-02-04T09:02:29;6.50;99.90
52859;DHT22;38721;53.098;6.596;2023-02-04T09:04:55;6.50;99.90
52859;DHT22;38721;53.098;6.596;2023-02-04T09:07:21;6.60;99.90
52859;DHT22;38721;53.098;6.596;2023-02-04T09:09:46;6.60;99.90
52859;DHT22;38721;53.098;6.596;2023-02-04T09:12:13;6.50;99.90
52859;DHT22;38721;53.098;6.596;2023-02-04T09:14:39;6.50;99.90
52859;DHT22;38721;53.098;6.596;2023-02-04T09:17:05;6.50;99.90
52859;DHT22;38721;53.098;6.596;2023-02-04T09:19:31;6.60;99.90
52859;DHT22;38721;53.098;6.596;2023-02-04T09:21:57;6.60;99.90
52859;DHT22;38721;53.098;6.596;2023-02-04T09:24:23;6.70;99.90
52859;DHT22;38721;53.098;6.596;2023-02-04T09:26:49;6.60;99.90
52859;DHT22;38721;53.098;6.596;2023-02-04T09:29:15;6.70;99.90
52859;DHT22;38721;53.098;6.596;2023-02-04T09:31:42;6.80;99.90
52859;DHT22;38721;53.098;6.596;2023-02-04T09:34:08;6.70;99.90
52859;DHT22;38721;53.098;6.596;2023-02-04T09:36:34;6.90;99.90
52859;DHT22;38721;53.098;6.596;2023-02-04T09:39:04;6.90;99.90
52859;DHT22;38721;53.098;6.596;2023-02-04T09:41:32;6.90;99.90
52859;DHT22;38721;53.098;6.596;2023-02-04T09:44:00;7.00;99.90
52859;DHT22;38721;53.098;6.596;2023-02-04T09:46:27;7.00;99.90
52859;DHT22;38721;53.098;6.596;2023-02-04T09:48:54;7.10;99.90
52859;DHT22;38721;53.098;6.596;2023-02-04T09:51:24;7.10;99.90
52859;DHT22;38721;53.098;6.596;2023-02-04T09:53:51;7.00;99.90
52859;DHT22;38721;53.098;6.596;2023-02-04T09:56:18;7.20;99.90
52859;DHT22;38721;53.098;6.596;2023-02-04T09:58:45;7.20;99.90
52859;DHT22;38721;53.098;6.596;2023-02-04T10:01:15;7.20;99.90
52859;DHT22;38721;53.098;6.596;2023-02-04T10:03:42;7.20;99.90
52859;DHT22;38721;53.098;6.596;2023-02-04T10:06:19;7.10;99.90
52859;DHT22;38721;53.098;6.596;2023-02-04T10:08:47;7.40;99.90
52859;DHT22;38721;53.098;6.596;2023-02-04T10:11:15;7.40;99.90
52859;DHT22;38721;53.098;6.596;2023-02-04T10:13:50;7.50;99.90
52859;DHT22;38721;53.098;6.596;2023-02-04T10:16:25;7.40;99.90
52859;DHT22;38721;53.098;6.596;2023-02-04T10:18:56;7.50;99.90
52859;DHT22;38721;53.098;6.596;2023-02-04T10:21:35;7.80;99.90
52859;DHT22;38721;53.098;6.596;2023-02-04T10:24:03;7.60;99.90
52859;DHT22;38721;53.098;6.596;2023-02-04T10:26:31;7.80;99.90
52859;DHT22;38721;53.098;6.596;2023-02-04T10:29:03;7.90;99.90
52859;DHT22;38721;53.098;6.596;2023-02-04T10:31:37;8.00;99.90
52859;DHT22;38721;53.098;6.596;2023-02-04T10:34:20;8.00;99.90
52859;DHT22;38721;53.098;6.596;2023-02-04T10:36:48;7.90;99.90
52859;DHT22;38721;53.098;6.596;2023-02-04T10:41:55;8.10;99.90
52859;DHT22;38721;53.098;6.596;2023-02-04T10:47:03;8.00;99.90
52859;DHT22;38721;53.098;6.596;2023-02-04T10:49:32;8.10;99.90
52859;DHT22;38721;53.098;6.596;2023-02-04T10:51:58;8.20;99.90
52859;DHT22;38721;53.098;6.596;2023-02-04T10:54:34;8.20;99.90
52859;DHT22;38721;53.098;6.596;2023-02-04T10:57:23;8.40;99.90
52859;DHT22;38721;53.098;6.596;2023-02-04T10:59:57;8.40;99.90
52859;DHT22;38721;53.098;6.596;2023-02-04T11:02:40;8.50;99.90
52859;DHT22;38721;53.098;6.596;2023-02-04T11:05:17;8.40;68.10
52859;DHT22;38721;53.098;6.596;2023-02-04T11:07:44;8.60;99.90
52859;DHT22;38721;53.098;6.596;2023-02-04T11:10:36;8.70;99.90
52859;DHT22;38721;53.098;6.596;2023-02-04T11:13:05;8.70;1.00
52859;DHT22;38721;53.098;6.596;2023-02-04T11:15:48;8.70;1.00
52859;DHT22;38721;53.098;6.596;2023-02-04T11:20:48;8.70;99.90
52859;DHT22;38721;53.098;6.596;2023-02-04T11:25:42;8.90;1.00
52859;DHT22;38721;53.098;6.596;2023-02-04T11:28:23;8.70;99.90
52859;DHT22;38721;53.098;6.596;2023-02-04T11:30:58;8.70;99.90
52859;DHT22;38721;53.098;6.596;2023-02-04T11:33:25;8.60;99.90
52859;DHT22;38721;53.098;6.596;2023-02-04T11:36:09;8.50;99.90
52859;DHT22;38721;53.098;6.596;2023-02-04T11:38:36;8.50;99.90
52859;DHT22;38721;53.098;6.596;2023-02-04T11:41:03;8.40;99.90
52859;DHT22;38721;53.098;6.596;2023-02-04T11:43:33;8.40;99.90
52859;DHT22;38721;53.098;6.596;2023-02-04T11:46:09;8.40;99.90
52859;DHT22;38721;53.098;6.596;2023-02-04T11:48:37;8.50;99.90
52859;DHT22;38721;53.098;6.596;2023-02-04T11:51:19;8.30;1.00
52859;DHT22;38721;53.098;6.596;2023-02-04T11:53:50;8.40;1.00
52859;DHT22;38721;53.098;6.596;2023-02-04T11:56:21;8.50;14.40
52859;DHT22;38721;53.098;6.596;2023-02-04T11:58:48;8.60;99.90
52859;DHT22;38721;53.098;6.596;2023-02-04T12:01:18;8.30;1.00
52859;DHT22;38721;53.098;6.596;2023-02-04T12:03:47;8.50;99.90
52859;DHT22;38721;53.098;6.596;2023-02-04T12:06:21;8.60;99.90
52859;DHT22;38721;53.098;6.596;2023-02-04T12:08:47;8.60;99.90
52859;DHT22;38721;53.098;6.596;2023-02-04T12:11:29;8.50;56.20
52859;DHT22;38721;53.098;6.596;2023-02-04T12:13:57;8.70;99.90
52859;DHT22;38721;53.098;6.596;2023-02-04T12:16:24;8.80;99.90
52859;DHT22;38721;53.098;6.596;2023-02-04T12:18:50;8.90;1.00
52859;DHT22;38721;53.098;6.596;2023-02-04T12:21:17;9.00;72.00
52859;DHT22;38721;53.098;6.596;2023-02-04T12:23:46;9.00;99.90
52859;DHT22;38721;53.098;6.596;2023-02-04T12:26:12;9.20;99.90
52859;DHT22;38721;53.098;6.596;2023-02-04T12:28:38;9.30;99.90
52859;DHT22;38721;53.098;6.596;2023-02-04T12:31:03;9.30;99.90
52859;DHT22;38721;53.098;6.596;2023-02-04T12:33:29;9.40;1.00
52859;DHT22;38721;53.098;6.596;2023-02-04T12:35:58;9.50;99.90
52859;DHT22;38721;53.098;6.596;2023-02-04T12:38:24;9.60;99.90
52859;DHT22;38721;53.098;6.596;2023-02-04T12:40:49;9.60;99.90
52859;DHT22;38721;53.098;6.596;2023-02-04T12:43:15;9.70;1.00
52859;DHT22;38721;53.098;6.596;2023-02-04T12:45:41;9.70;1.00
52859;DHT22;38721;53.098;6.596;2023-02-04T12:48:13;9.70;1.00
52859;DHT22;38721;53.098;6.596;2023-02-04T12:50:38;9.50;34.10
52859;DHT22;38721;53.098;6.596;2023-02-04T12:53:04;9.70;1.00
52859;DHT22;38721;53.098;6.596;2023-02-04T12:55:31;9.80;99.90
52859;DHT22;38721;53.098;6.596;2023-02-04T12:57:56;9.60;92.50
52859;DHT22;38721;53.098;6.596;2023-02-04T13:00:23;9.60;1.00
52859;DHT22;38721;53.098;6.596;2023-02-04T13:02:48;9.60;99.90
52859;DHT22;38721;53.098;6.596;2023-02-04T13:05:15;9.70;99.90
52859;DHT22;38721;53.098;6.596;2023-02-04T13:07:41;9.60;99.90
52859;DHT22;38721;53.098;6.596;2023-02-04T13:10:09;9.50;99.90
52859;DHT22;38721;53.098;6.596;2023-02-04T13:12:35;9.10;99.60
52859;DHT22;38721;53.098;6.596;2023-02-04T13:15:01;9.40;17.30
52859;DHT22;38721;53.098;6.596;2023-02-04T13:17:27;9.50;1.00
52859;DHT22;38721;53.098;6.596;2023-02-04T13:19:52;9.40;1.00
52859;DHT22;38721;53.098;6.596;2023-02-04T13:22:18;9.50;99.90
52859;DHT22;38721;53.098;6.596;2023-02-04T13:24:44;9.60;99.90
52859;DHT22;38721;53.098;6.596;2023-02-04T13:27:10;9.50;99.90
52859;DHT22;38721;53.098;6.596;2023-02-04T13:29:35;9.50;99.90
52859;DHT22;38721;53.098;6.596;2023-02-04T13:32:01;9.40;99.90
52859;DHT22;38721;53.098;6.596;2023-02-04T13:34:27;9.60;99.90
52859;DHT22;38721;53.098;6.596;2023-02-04T13:36:53;9.70;99.90
52859;DHT22;38721;53.098;6.596;2023-02-04T13:39:19;9.70;99.90
52859;DHT22;38721;53.098;6.596;2023-02-04T13:41:45;9.60;1.00
52859;DHT22;38721;53.098;6.596;2023-02-04T13:44:11;9.60;10.50
52859;DHT22;38721;53.098;6.596;2023-02-04T13:46:37;9.50;99.90
52859;DHT22;38721;53.098;6.596;2023-02-04T13:49:03;9.40;99.90
52859;DHT22;38721;53.098;6.596;2023-02-04T13:51:28;9.60;99.90
52859;DHT22;38721;53.098;6.596;2023-02-04T13:53:55;9.70;1.00
52859;DHT22;38721;53.098;6.596;2023-02-04T13:56:21;9.60;99.90
52859;DHT22;38721;53.098;6.596;2023-02-04T13:58:46;9.70;99.90
52859;DHT22;38721;53.098;6.596;2023-02-04T14:01:13;9.60;1.00
52859;DHT22;38721;53.098;6.596;2023-02-04T14:03:39;9.70;1.00
52859;DHT22;38721;53.098;6.596;2023-02-04T14:06:05;9.70;99.90
52859;DHT22;38721;53.098;6.596;2023-02-04T14:08:31;9.70;99.90
52859;DHT22;38721;53.098;6.596;2023-02-04T14:10:57;9.50;99.90
52859;DHT22;38721;53.098;6.596;2023-02-04T14:13:23;9.70;8.30
52859;DHT22;38721;53.098;6.596;2023-02-04T14:15:49;9.70;99.90
52859;DHT22;38721;53.098;6.596;2023-02-04T14:18:15;9.80;61.80
52859;DHT22;38721;53.098;6.596;2023-02-04T14:20:41;10.00;1.00
52859;DHT22;38721;53.098;6.596;2023-02-04T14:23:08;10.10;99.90
52859;DHT22;38721;53.098;6.596;2023-02-04T14:25:34;10.20;99.90
52859;DHT22;38721;53.098;6.596;2023-02-04T14:28:00;10.40;1.00
52859;DHT22;38721;53.098;6.596;2023-02-04T14:30:27;10.50;99.90
52859;DHT22;38721;53.098;6.596;2023-02-04T14:32:53;10.60;99.90
52859;DHT22;38721;53.098;6.596;2023-02-04T14:35:20;10.70;99.90
52859;DHT22;38721;53.098;6.596;2023-02-04T14:37:46;10.80;73.30
52859;DHT22;38721;53.098;6.596;2023-02-04T14:40:13;10.90;58.90
52859;DHT22;38721;53.098;6.596;2023-02-04T14:42:42;10.60;99.90
52859;DHT22;38721;53.098;6.596;2023-02-04T14:45:10;10.30;99.90
52859;DHT22;38721;53.098;6.596;2023-02-04T14:47:37;10.40;97.90
52859;DHT22;38721;53.098;6.596;2023-02-04T14:50:04;10.50;94.40
52859;DHT22;38721;53.098;6.596;2023-02-04T14:52:30;10.00;99.90
52859;DHT22;38721;53.098;6.596;2023-02-04T14:54:56;10.10;99.50
52859;DHT22;38721;53.098;6.596;2023-02-04T14:57:24;10.50;99.90
52859;DHT22;38721;53.098;6.596;2023-02-04T14:59:50;11.30;1.00
52859;DHT22;38721;53.098;6.596;2023-02-04T15:02:16;11.50;99.90
52859;DHT22;38721;53.098;6.596;2023-02-04T15:04:45;11.10;99.90
52859;DHT22;38721;53.098;6.596;2023-02-04T15:07:11;11.10;99.90
52859;DHT22;38721;53.098;6.596;2023-02-04T15:09:38;11.00;43.50
52859;DHT22;38721;53.098;6.596;2023-02-04T15:12:04;11.20;1.00
52859;DHT22;38721;53.098;6.596;2023-02-04T15:14:30;11.00;1.00
52859;DHT22;38721;53.098;6.596;2023-02-04T15:16:56;10.50;14.80
52859;DHT22;38721;53.098;6.596;2023-02-04T15:19:21;10.30;1.00
52859;DHT22;38721;53.098;6.596;2023-02-04T15:21:49;10.20;99.90
52859;DHT22;38721;53.098;6.596;2023-02-04T15:24:16;10.20;1.00
52859;DHT22;38721;53.098;6.596;2023-02-04T15:26:41;9.60;99.90
52859;DHT22;38721;53.098;6.596;2023-02-04T15:29:07;9.10;99.90
52859;DHT22;38721;53.098;6.596;2023-02-04T15:31:33;9.00;99.90
52859;DHT22;38721;53.098;6.596;2023-02-04T15:33:59;8.90;99.90
52859;DHT22;38721;53.098;6.596;2023-02-04T15:36:25;8.70;99.90
52859;DHT22;38721;53.098;6.596;2023-02-04T15:38:51;8.40;99.90
52859;DHT22;38721;53.098;6.596;2023-02-04T15:41:19;8.20;99.90
52859;DHT22;38721;53.098;6.596;2023-02-04T15:43:45;8.00;1.00
52859;DHT22;38721;53.098;6.596;2023-02-04T15:46:13;7.90;92.20
52859;DHT22;38721;53.098;6.596;2023-02-04T15:48:38;7.70;99.90
52859;DHT22;38721;53.098;6.596;2023-02-04T15:51:04;7.60;99.90
52859;DHT22;38721;53.098;6.596;2023-02-04T15:53:31;7.50;99.90
52859;DHT22;38721;53.098;6.596;2023-02-04T15:55:59;7.30;1.00
52859;DHT22;38721;53.098;6.596;2023-02-04T15:58:25;7.20;1.00